Time;durP1;ratioP1;P1;durP2;ratioP2;P2;SDS_P1;SDS_P2;PMS_P1;PMS_P2;Temp;Humidity;BMP_temperature;BMP_pressure;BME280_temperature;BME280_humidity;BME280_pressure;Samples;Min_cycle;Max_cycle;Signal;HPM_P1;HPM_P2
2021/12/09 00:01:48;;;;;;;26.33;11.83;;;;;;;6.37;86.63;100174.67;1874029;76;22209;-72
2021/12/09 00:04:27;;;;;;;22.82;10.48;;;;;;;6.38;86.72;100175.02;1874024;76;22128;-70
2021/12/09 00:07:12;;;;;;;26.45;10.60;;;;;;;6.41;86.78;100173.46;1874016;76;22138;-70
2021/12/09 00:09:44;;;;;;;20.10;8.33;;;;;;;6.43;86.68;100174.16;1874036;76;22129;-72
2021/12/09 00:12:17;;;;;;;20.48;9.13;;;;;;;6.48;86.62;100166.70;1874031;76;22565;-69
2021/12/09 00:15:08;;;;;;;30.05;11.38;;;;;;;6.54;86.43;100174.14;1874017;76;22120;-70
2021/12/09 00:17:40;;;;;;;22.87;9.03;;;;;;;6.55;86.33;100178.45;1874014;76;22607;-69
2021/12/09 00:20:13;;;;;;;23.85;9.58;;;;;;;6.54;86.25;100173.27;1874030;76;22128;-72
2021/12/09 00:23:04;;;;;;;22.93;9.10;;;;;;;6.51;86.18;100175.70;1871302;76;22129;-69
2021/12/09 00:25:36;;;;;;;18.35;7.45;;;;;;;6.51;86.23;100175.70;1873936;76;22549;-71
2021/12/09 00:28:27;;;;;;;24.57;10.20;;;;;;;6.54;86.10;100168.86;1892778;76;22136;-72
2021/12/09 00:30:59;;;;;;;20.43;8.23;;;;;;;6.53;86.14;100179.52;1874031;76;22128;-70
2021/12/09 00:33:30;;;;;;;22.25;8.98;;;;;;;6.54;86.18;100178.09;1874034;76;22162;-72
2021/12/09 00:38:59;;;;;;;21.33;9.10;;;;;;;6.53;86.13;100189.59;1874024;76;22592;-69
2021/12/09 00:41:50;;;;;;;20.27;8.35;;;;;;;6.53;86.07;100188.76;1892911;76;22124;-70
2021/12/09 00:44:22;;;;;;;24.05;9.05;;;;;;;6.53;86.14;100198.00;1874041;76;22565;-71
2021/12/09 00:47:12;;;;;;;25.12;8.43;;;;;;;6.52;86.23;100191.88;1873988;76;22142;-69
2021/12/09 00:49:45;;;;;;;21.75;9.43;;;;;;;6.51;86.27;100194.17;1892919;76;22156;-70
2021/12/09 00:52:36;;;;;;;20.95;8.10;;;;;;;6.51;86.36;100193.34;1892776;76;22136;-69
2021/12/09 00:55:09;;;;;;;19.82;8.33;;;;;;;6.53;86.45;100188.76;1874035;76;22137;-70
2021/12/09 00:57:42;;;;;;;20.30;8.40;;;;;;;6.54;86.40;100188.66;1874028;76;22141;-71
2021/12/09 01:00:33;;;;;;;22.45;8.33;;;;;;;6.58;86.32;100188.73;1873992;76;22583;-72
2021/12/09 01:03:04;;;;;;;23.55;8.88;;;;;;;6.59;86.29;100184.31;1871321;76;22165;-72
2021/12/09 01:05:36;;;;;;;20.60;8.80;;;;;;;6.54;86.31;100179.41;1892943;76;22136;-73
2021/12/09 01:08:08;;;;;;;22.95;8.80;;;;;;;6.50;86.39;100174.03;1892943;76;22108;-72
2021/12/09 01:10:40;;;;;;;23.05;8.68;;;;;;;6.48;86.51;100181.22;1892814;76;22136;-71
2021/12/09 01:13:31;;;;;;;22.98;8.53;;;;;;;6.52;86.70;100186.60;1892809;76;22136;-72
2021/12/09 01:16:04;;;;;;;21.48;8.33;;;;;;;6.57;86.59;100187.55;1892819;76;22127;-71
2021/12/09 01:18:55;;;;;;;20.75;8.55;;;;;;;6.59;86.55;100189.59;1873994;76;22137;-70
2021/12/09 01:21:27;;;;;;;21.50;9.33;;;;;;;6.59;86.63;100189.11;1892845;76;22149;-71
2021/12/09 01:24:18;;;;;;;29.25;10.95;;;;;;;6.60;86.62;100197.86;1892795;76;22606;-71
2021/12/09 01:26:50;;;;;;;19.75;8.03;;;;;;;6.58;86.68;100200.61;1874036;76;22136;-71
2021/12/09 01:29:31;;;;;;;20.17;7.75;;;;;;;6.58;86.73;100203.25;1874041;76;22136;-72
2021/12/09 01:32:00;;;;;;;24.20;9.28;;;;;;;6.58;86.78;100203.73;1892715;76;22104;-72
2021/12/09 01:34:29;;;;;;;25.65;9.95;;;;;;;6.59;86.88;100208.91;1892812;76;22144;-70
2021/12/09 01:37:01;;;;;;;25.88;9.45;;;;;;;6.60;86.92;100215.02;1892816;76;22156;-70
2021/12/09 01:39:33;;;;;;;25.65;9.13;;;;;;;6.58;87.04;100211.17;1874036;76;22120;-71
2021/12/09 01:42:05;;;;;;;20.57;8.78;;;;;;;6.59;87.14;100211.55;1874034;76;22129;-71
2021/12/09 01:44:38;;;;;;;22.42;8.58;;;;;;;6.56;87.16;100200.39;1873943;76;22164;-71
2021/12/09 01:47:35;;;;;;;24.23;9.58;;;;;;;6.52;87.35;100197.64;1873264;76;22129;-71
2021/12/09 01:50:08;;;;;;;23.27;10.00;;;;;;;6.51;87.55;100207.37;1874035;76;22573;-70
2021/12/09 01:52:59;;;;;;;26.35;11.10;;;;;;;6.54;87.73;100208.91;1874089;76;22141;-70
2021/12/09 01:55:31;;;;;;;29.50;10.95;;;;;;;6.56;87.63;100217.06;1874083;76;22140;-70
2021/12/09 01:58:22;;;;;;;24.67;8.70;;;;;;;6.56;87.57;100221.02;1871294;76;22184;-71
2021/12/09 02:00:54;;;;;;;27.45;10.85;;;;;;;6.56;87.56;100219.70;1892787;76;22581;-70
2021/12/09 02:03:46;;;;;;;24.37;9.85;;;;;;;6.56;87.62;100232.91;1892784;76;22574;-69
2021/12/09 02:06:18;;;;;;;25.62;10.80;;;;;;;6.57;87.62;100227.97;1874017;76;22562;-71
2021/12/09 02:09:12;;;;;;;22.80;9.58;;;;;;;6.58;87.63;100236.23;1892768;76;22153;-70
2021/12/09 02:11:43;;;;;;;25.43;9.90;;;;;;;6.58;87.60;100242.00;1892835;76;22132;-70
2021/12/09 02:14:34;;;;;;;22.25;9.15;;;;;;;6.56;87.63;100249.22;1873844;76;22157;-71
2021/12/09 02:17:07;;;;;;;21.17;8.13;;;;;;;6.56;87.71;100238.66;1874014;76;22557;-70
2021/12/09 02:20:01;;;;;;;22.87;8.90;;;;;;;6.52;87.76;100230.15;1873983;76;22129;-70
2021/12/09 02:22:33;;;;;;;22.48;8.50;;;;;;;6.50;87.96;100237.85;1873873;76;22578;-71
2021/12/09 02:25:07;;;;;;;20.90;9.23;;;;;;;6.47;88.12;100237.60;1874002;76;22142;-71
2021/12/09 02:27:40;;;;;;;22.50;9.98;;;;;;;6.49;88.26;100234.34;1873924;76;22128;-71
2021/12/09 02:30:13;;;;;;;20.92;8.38;;;;;;;6.49;88.28;100229.06;1874030;76;22152;-70
2021/12/09 02:32:46;;;;;;;22.93;9.25;;;;;;;6.50;88.35;100230.77;1874033;76;22546;-70
2021/12/09 02:35:38;;;;;;;24.45;10.50;;;;;;;6.52;88.38;100231.47;1892763;76;22128;-70
2021/12/09 02:38:10;;;;;;;21.90;9.18;;;;;;;6.54;88.49;100230.02;1874033;76;22562;-71
2021/12/09 02:40:42;;;;;;;22.20;9.20;;;;;;;6.55;88.50;100229.91;1874003;76;22170;-68
2021/12/09 02:43:33;;;;;;;24.47;10.30;;;;;;;6.55;88.47;100240.47;1874129;76;22125;-69
2021/12/09 02:46:04;;;;;;;20.72;9.23;;;;;;;6.54;88.55;100242.76;1871310;76;22566;-70
2021/12/09 02:48:37;;;;;;;20.55;8.18;;;;;;;6.52;88.65;100245.98;1874141;76;22132;-70
2021/12/09 02:51:29;;;;;;;24.50;9.45;;;;;;;6.54;88.67;100245.40;1873882;76;22146;-72
2021/12/09 02:54:01;;;;;;;23.67;9.55;;;;;;;6.58;88.74;100242.00;1892816;76;22123;-72
2021/12/09 02:56:56;;;;;;;18.20;8.45;;;;;;;6.64;88.82;100234.93;1873902;76;22156;-71
2021/12/09 02:59:29;;;;;;;21.65;9.15;;;;;;;6.65;88.68;100245.35;1874006;76;22136;-73
2021/12/09 03:02:20;;;;;;;24.72;9.78;;;;;;;6.68;88.68;100250.02;1873904;76;22164;-71
2021/12/09 03:04:54;;;;;;;21.75;9.10;;;;;;;6.68;88.64;100258.80;1874009;76;22153;-70
2021/12/09 03:07:45;;;;;;;25.00;10.43;;;;;;;6.68;88.63;100255.30;1892792;76;22572;-71
2021/12/09 03:10:24;;;;;;;20.82;8.70;;;;;;;6.65;88.68;100251.12;1873948;76;22153;-72
2021/12/09 03:13:16;;;;;;;21.57;9.28;;;;;;;6.64;88.82;100256.88;1873932;76;22132;-70
2021/12/09 03:15:48;;;;;;;21.85;9.08;;;;;;;6.63;88.91;100261.81;1874039;76;22577;-70
2021/12/09 03:18:46;;;;;;;21.62;8.90;;;;;;;6.63;88.90;100256.53;1873931;76;22178;-72
2021/12/09 03:21:22;;;;;;;22.32;9.35;;;;;;;6.62;88.96;100258.79;1873928;76;22150;-71
2021/12/09 03:23:55;;;;;;;22.27;9.73;;;;;;;6.60;89.03;100259.41;1874044;76;22137;-72
2021/12/09 03:26:55;;;;;;;22.10;9.43;;;;;;;6.59;89.14;100258.22;1873891;76;22146;-71
2021/12/09 03:29:29;;;;;;;23.47;10.68;;;;;;;6.58;89.38;100260.48;1892826;76;22129;-70
2021/12/09 03:32:05;;;;;;;23.02;9.73;;;;;;;6.57;89.45;100262.28;1873926;76;22153;-71
2021/12/09 03:34:56;;;;;;;27.75;10.03;;;;;;;6.58;89.48;100260.48;1871273;76;22575;-71
2021/12/09 03:37:29;;;;;;;22.52;9.98;;;;;;;6.61;89.62;100266.84;1874044;76;22133;-73
2021/12/09 03:40:01;;;;;;;23.83;10.75;;;;;;;6.64;89.67;100273.20;1873960;76;22574;-70
2021/12/09 03:42:51;;;;;;;30.32;11.43;;;;;;;6.65;89.57;100272.23;1873888;76;22136;-70
2021/12/09 03:45:23;;;;;;;27.07;12.85;;;;;;;6.63;89.67;100277.65;1874001;76;22125;-71
2021/12/09 03:48:14;;;;;;;26.75;11.43;;;;;;;6.64;89.81;100278.00;1873951;76;22148;-73
2021/12/09 03:50:46;;;;;;;23.85;9.85;;;;;;;6.66;89.78;100276.55;1874040;76;22133;-72
2021/12/09 03:53:43;;;;;;;23.77;11.13;;;;;;;6.69;89.85;100288.67;1857195;76;30288;-69
2021/12/09 03:56:15;;;;;;;23.15;10.13;;;;;;;6.79;89.62;100286.95;1873951;76;22157;-70
2021/12/09 03:58:47;;;;;;;23.77;10.35;;;;;;;6.85;89.43;100282.48;1892817;76;22124;-70
2021/12/09 04:01:41;;;;;;;25.72;11.03;;;;;;;6.80;89.18;100279.39;1874021;76;22128;-71
2021/12/09 04:04:13;;;;;;;23.95;9.75;;;;;;;6.75;89.30;100274.97;1892814;76;22140;-71
2021/12/09 04:06:45;;;;;;;21.80;9.85;;;;;;;6.71;89.40;100273.53;1892808;76;22181;-70
2021/12/09 04:09:36;;;;;;;21.25;9.90;;;;;;;6.70;89.70;100277.14;1873993;76;22562;-72
2021/12/09 04:12:09;;;;;;;21.60;9.60;;;;;;;6.69;89.75;100273.67;1874023;76;22574;-73
2021/12/09 04:15:01;;;;;;;25.35;10.60;;;;;;;6.66;89.77;100279.19;1892782;76;22148;-71
2021/12/09 04:17:34;;;;;;;26.27;10.88;;;;;;;6.65;89.87;100280.98;1874030;76;22575;-70
2021/12/09 04:20:25;;;;;;;23.42;10.18;;;;;;;6.69;89.81;100289.99;1874036;76;22134;-70
2021/12/09 04:22:57;;;;;;;23.25;9.98;;;;;;;6.65;89.71;100288.91;1873951;76;22136;-71
2021/12/09 04:25:29;;;;;;;24.05;10.20;;;;;;;6.65;89.90;100288.08;1892814;76;22575;-71
2021/12/09 04:28:21;;;;;;;25.55;11.48;;;;;;;6.64;89.97;100282.44;1892700;76;22585;-70
2021/12/09 04:30:53;;;;;;;21.90;9.58;;;;;;;6.65;89.99;100288.91;1874012;76;22125;-70
2021/12/09 04:33:47;;;;;;;23.38;10.63;;;;;;;6.65;90.03;100286.27;1871286;76;22220;-70
2021/12/09 04:36:21;;;;;;;24.45;11.00;;;;;;;6.68;90.07;100293.57;1892801;76;22557;-69
2021/12/09 04:39:12;;;;;;;25.02;9.68;;;;;;;6.66;89.99;100291.06;1874000;76;22579;-69
2021/12/09 04:41:45;;;;;;;26.02;12.58;;;;;;;6.65;90.08;100303.42;1874020;76;22558;-70
2021/12/09 04:44:36;;;;;;;24.57;11.85;;;;;;;6.65;90.13;100316.62;1892894;76;22128;-69
2021/12/09 04:47:08;;;;;;;25.30;9.90;;;;;;;6.66;90.28;100325.38;1892786;76;22111;-70
2021/12/09 04:49:59;;;;;;;22.90;10.08;;;;;;;6.70;90.28;100327.30;1892771;76;22569;-71
2021/12/09 04:52:31;;;;;;;23.40;9.50;;;;;;;6.71;90.29;100328.48;1892836;76;22120;-72
2021/12/09 04:55:08;;;;;;;23.60;10.30;;;;;;;6.71;90.24;100325.02;1871299;76;22132;-70
2021/12/09 04:57:58;;;;;;;31.70;12.45;;;;;;;6.72;90.34;100328.00;1874008;76;22562;-70
2021/12/09 05:00:32;;;;;;;24.92;11.57;;;;;;;6.75;90.42;100334.37;1873917;76;22120;-70
2021/12/09 05:03:09;;;;;;;24.67;10.98;;;;;;;6.78;90.42;100331.01;1873921;76;22140;-70
2021/12/09 05:05:59;;;;;;;28.20;11.95;;;;;;;6.82;90.24;100334.22;1874006;76;22599;-72
2021/12/09 05:08:33;;;;;;;25.35;12.37;;;;;;;6.81;90.18;100336.02;1874044;76;22562;-72
2021/12/09 05:11:33;;;;;;;24.92;11.97;;;;;;;6.81;90.04;100348.39;1870218;75;22202;-71
2021/12/09 05:14:33;;;;;;;29.77;14.18;;;;;;;6.76;90.03;100347.92;1846288;77;21099;-71
2021/12/09 05:17:24;;;;;;;31.52;12.82;;;;;;;6.79;90.06;100349.01;1874612;75;22275;-71
2021/12/09 05:19:56;;;;;;;34.08;14.95;;;;;;;6.79;90.12;100356.44;1874011;76;22137;-58
2021/12/09 05:22:27;;;;;;;29.20;15.13;;;;;;;6.82;90.23;100359.30;1874026;76;22566;-57
2021/12/09 05:24:59;;;;;;;31.00;14.78;;;;;;;6.82;90.13;100360.62;1874023;76;22170;-57
2021/12/09 05:27:50;;;;;;;26.20;13.48;;;;;;;6.83;90.16;100359.69;1892802;76;22212;-57
2021/12/09 05:30:37;;;;;;;26.55;12.73;;;;;;;6.86;90.17;100367.34;1892820;76;22557;-56
2021/12/09 05:33:37;;;;;;;26.77;12.50;;;;;;;6.92;90.07;100369.51;1868892;75;22206;-58
2021/12/09 05:36:09;;;;;;;26.42;12.88;;;;;;;6.95;90.02;100376.33;1874026;76;22146;-58
2021/12/09 05:38:40;;;;;;;27.60;14.53;;;;;;;7.00;90.03;100389.52;1874123;76;22177;-59
2021/12/09 05:41:12;;;;;;;29.30;14.07;;;;;;;7.03;89.78;100388.44;1874027;76;22124;-60
2021/12/09 05:44:05;;;;;;;25.15;12.07;;;;;;;7.01;89.58;100387.26;1873853;76;22178;-58
2021/12/09 05:46:39;;;;;;;23.75;9.88;;;;;;;6.99;89.59;100391.80;1874002;76;22586;-60
2021/12/09 05:49:11;;;;;;;26.75;13.20;;;;;;;7.25;91.43;100396.80;1874002;76;22157;-59
2021/12/09 05:51:44;;;;;;;29.42;14.13;;;;;;;7.75;90.89;100401.02;1892516;76;22189;-77
2021/12/09 05:54:15;;;;;;;33.45;15.43;;;;;;;7.85;89.29;100407.21;1873030;76;22181;-77
2021/12/09 05:57:08;;;;;;;32.65;15.85;;;;;;;7.84;88.14;100409.02;1873419;76;22182;-75
2021/12/09 05:59:41;;;;;;;32.25;15.28;;;;;;;7.77;87.48;100416.30;1873481;76;22200;-77
2021/12/09 06:02:16;;;;;;;29.12;14.95;;;;;;;7.62;87.21;100412.64;1873111;76;22152;-74
2021/12/09 06:04:47;;;;;;;28.60;14.07;;;;;;;7.56;87.37;100413.13;1873309;76;22212;-78
2021/12/09 06:07:19;;;;;;;30.70;15.48;;;;;;;7.57;87.35;100408.18;1892109;76;22156;-75
2021/12/09 06:09:52;;;;;;;33.08;16.05;;;;;;;7.58;87.26;100410.37;1873191;76;22165;-70
2021/12/09 06:12:23;;;;;;;31.25;15.40;;;;;;;7.57;87.17;100413.95;1892097;76;22203;-69
2021/12/09 06:14:55;;;;;;;34.33;16.57;;;;;;;7.55;87.04;100410.13;1873423;76;22169;-65
2021/12/09 06:17:27;;;;;;;45.15;29.87;;;;;;;7.50;87.09;100414.13;1873537;76;22174;-64
2021/12/09 06:19:59;;;;;;;54.55;37.23;;;;;;;7.48;87.19;100418.22;1873364;76;22601;-77
2021/12/09 06:22:31;;;;;;;69.32;50.30;;;;;;;7.47;87.29;100417.00;1855448;76;22196;-66
2021/12/09 06:25:04;;;;;;;75.40;57.48;;;;;;;7.46;87.38;100432.03;1873251;76;22161;-65
2021/12/09 06:27:36;;;;;;;48.85;34.78;;;;;;;7.45;87.54;100433.00;1883378;76;22637;-68
2021/12/09 06:30:09;;;;;;;41.65;24.80;;;;;;;7.43;87.65;100431.81;1850434;76;22691;-72
2021/12/09 06:33:00;;;;;;;31.80;15.72;;;;;;;7.46;87.71;100437.80;1873207;76;22149;-72
2021/12/09 06:35:33;;;;;;;32.95;17.32;;;;;;;7.48;87.72;100442.47;1892052;76;22661;-72
2021/12/09 06:38:08;;;;;;;35.35;17.90;;;;;;;7.50;87.70;100448.48;1872770;76;22197;-72
2021/12/09 06:40:58;;;;;;;38.25;19.52;;;;;;;7.52;87.68;100454.47;1870535;76;22193;-71
2021/12/09 06:43:34;;;;;;;35.88;17.73;;;;;;;7.51;87.83;100461.56;1873223;76;22605;-73
2021/12/09 06:46:06;;;;;;;37.30;19.82;;;;;;;7.52;87.86;100463.23;1876148;76;27879;-72
2021/12/09 06:48:57;;;;;;;34.03;17.62;;;;;;;7.63;87.69;100472.47;1892207;76;22181;-72
2021/12/09 06:51:29;;;;;;;32.25;15.45;;;;;;;7.67;87.37;100467.78;1873285;76;22593;-72
2021/12/09 06:54:01;;;;;;;34.70;16.23;;;;;;;7.65;87.41;100474.50;1891734;76;22199;-72
2021/12/09 06:56:34;;;;;;;41.63;19.75;;;;;;;7.62;87.57;100473.90;1871592;76;22633;-72
2021/12/09 06:59:06;;;;;;;41.83;19.10;;;;;;;7.63;87.68;100480.89;1873254;76;22200;-72
2021/12/09 07:01:38;;;;;;;36.08;17.75;;;;;;;7.60;87.79;100484.61;1873153;76;22193;-71
2021/12/09 07:04:10;;;;;;;37.63;16.52;;;;;;;7.60;87.85;100480.64;1873334;76;22196;-70
2021/12/09 07:06:42;;;;;;;39.05;17.70;;;;;;;7.59;87.82;100482.10;1866122;76;22167;-73
2021/12/09 07:09:14;;;;;;;36.93;18.25;;;;;;;7.55;87.93;100484.64;1869347;76;22189;-73
2021/12/09 07:11:51;;;;;;;33.88;16.87;;;;;;;7.56;88.14;100485.82;1872963;76;22170;-72
2021/12/09 07:14:42;;;;;;;41.83;18.95;;;;;;;7.57;88.12;100491.46;1891852;76;22219;-70
2021/12/09 07:17:13;;;;;;;43.48;18.00;;;;;;;7.56;88.25;100492.91;1873307;76;22613;-68
2021/12/09 07:19:45;;;;;;;36.63;16.37;;;;;;;7.57;88.23;100493.27;1892028;76;22160;-71
2021/12/09 07:22:17;;;;;;;32.10;15.00;;;;;;;7.55;88.23;100491.24;1889451;76;22227;-69
2021/12/09 07:24:49;;;;;;;36.77;18.42;;;;;;;7.53;88.25;100493.16;1873139;76;22144;-70
2021/12/09 07:27:21;;;;;;;38.05;18.15;;;;;;;7.51;88.30;100497.73;1873229;76;22208;-69
2021/12/09 07:29:54;;;;;;;33.88;16.80;;;;;;;7.50;88.45;100496.91;1892090;76;22732;-72
2021/12/09 07:32:26;;;;;;;32.78;15.83;;;;;;;7.48;88.52;100497.52;1873213;76;22225;-71
2021/12/09 07:34:58;;;;;;;29.23;14.03;;;;;;;7.48;88.59;100499.30;1873299;76;22196;-70
2021/12/09 07:37:30;;;;;;;30.15;15.75;;;;;;;7.50;88.66;100497.39;1891611;76;22185;-66
2021/12/09 07:40:03;;;;;;;33.20;15.63;;;;;;;7.51;88.74;100495.93;1873186;76;22181;-66
2021/12/09 07:42:35;;;;;;;36.95;17.02;;;;;;;7.57;88.88;100502.52;1873233;76;22184;-65
2021/12/09 07:45:26;;;;;;;37.48;18.48;;;;;;;7.61;88.80;100510.08;1872798;76;22698;-73
2021/12/09 07:47:58;;;;;;;33.73;17.75;;;;;;;7.64;88.71;100509.00;1873025;76;22652;-72
2021/12/09 07:50:32;;;;;;;34.53;19.07;;;;;;;7.66;88.59;100501.29;1891711;76;22830;-68
2021/12/09 07:53:04;;;;;;;36.03;17.73;;;;;;;7.71;88.43;100511.48;1873022;76;22168;-71
2021/12/09 07:55:37;;;;;;;37.80;19.82;;;;;;;7.72;88.42;100514.52;1873051;76;22214;-64
2021/12/09 07:58:09;;;;;;;37.73;17.57;;;;;;;7.75;88.39;100513.41;1873153;76;22168;-74
2021/12/09 08:00:41;;;;;;;36.08;17.77;;;;;;;7.78;88.34;100514.00;1889414;76;23231;-73
2021/12/09 08:03:13;;;;;;;35.80;17.15;;;;;;;7.82;88.29;100511.95;1861487;76;22748;-67
2021/12/09 08:05:47;;;;;;;35.58;16.70;;;;;;;7.85;87.97;100501.94;1873545;76;22153;-62
2021/12/09 08:08:19;;;;;;;44.60;23.52;;;;;;;7.87;87.86;100496.55;1873502;76;22210;-63
2021/12/09 08:10:51;;;;;;;51.58;29.00;;;;;;;7.93;87.67;100496.87;1891606;76;22148;-66
2021/12/09 08:13:23;;;;;;;54.75;34.63;;;;;;;7.97;87.41;100486.88;1891859;76;22176;-66
2021/12/09 08:15:56;;;;;;;47.93;28.07;;;;;;;8.03;87.22;100491.65;1891858;76;22644;-66
2021/12/09 08:18:30;;;;;;;46.45;27.05;;;;;;;8.06;87.05;100490.57;1891920;76;22184;-64
2021/12/09 08:21:22;;;;;;;34.53;20.60;;;;;;;8.08;87.08;100497.39;1872753;76;22200;-64
2021/12/09 08:23:54;;;;;;;30.82;17.23;;;;;;;8.13;86.89;100487.75;1872918;76;22197;-72
2021/12/09 08:26:26;;;;;;;29.80;15.68;;;;;;;8.11;86.29;100493.19;1891705;76;22253;-64
2021/12/09 08:28:58;;;;;;;28.55;14.73;;;;;;;8.08;86.09;100487.30;1891833;76;22224;-76
2021/12/09 08:31:49;;;;;;;37.65;20.65;;;;;;;8.06;85.87;100484.80;1873354;76;22649;-74
2021/12/09 08:34:21;;;;;;;27.37;13.65;;;;;;;8.04;85.88;100488.03;1868012;76;22164;-75
2021/12/09 08:37:12;;;;;;;24.10;13.18;;;;;;;8.00;85.63;100491.06;1873069;76;22197;-66
2021/12/09 08:39:44;;;;;;;26.45;14.60;;;;;;;7.97;85.82;100493.49;1873328;76;22184;-67
2021/12/09 08:42:16;;;;;;;26.82;13.60;;;;;;;7.99;85.91;100496.84;1873208;76;22193;-63
2021/12/09 08:44:48;;;;;;;25.45;12.80;;;;;;;8.01;85.87;100489.62;1873168;76;22157;-64
2021/12/09 08:47:40;;;;;;;26.75;14.75;;;;;;;8.03;85.87;100491.65;1889457;76;22173;-67
2021/12/09 08:50:15;;;;;;;28.83;14.05;;;;;;;8.04;85.92;100501.75;1873340;76;22192;-62
2021/12/09 08:52:48;;;;;;;32.40;16.25;;;;;;;8.04;85.92;100501.75;1870071;76;22152;-63
2021/12/09 08:55:40;;;;;;;30.92;14.60;;;;;;;8.08;85.96;100500.53;1869505;76;22177;-64
2021/12/09 08:58:12;;;;;;;33.23;19.07;;;;;;;8.09;85.75;100501.75;1872828;76;22174;-67
2021/12/09 09:01:04;;;;;;;35.17;19.70;;;;;;;8.13;85.73;100498.34;1872816;76;22213;-68
2021/12/09 09:03:36;;;;;;;29.85;15.45;;;;;;;8.12;85.57;100498.82;1873117;76;22200;-65
2021/12/09 09:06:29;;;;;;;24.85;12.53;;;;;;;8.12;85.37;100500.63;1872984;76;22188;-67
2021/12/09 09:09:04;;;;;;;30.35;15.75;;;;;;;8.11;85.36;100501.61;1872885;76;22177;-67
2021/12/09 09:11:36;;;;;;;32.28;15.98;;;;;;;8.09;85.16;100503.06;1873172;76;22222;-65
2021/12/09 09:14:07;;;;;;;38.78;19.42;;;;;;;8.08;85.14;100510.63;1869465;76;22644;-70
2021/12/09 09:16:39;;;;;;;40.38;19.95;;;;;;;8.01;84.92;100515.25;1873099;76;22609;-71
2021/12/09 09:19:13;;;;;;;34.20;17.98;;;;;;;7.94;85.08;100517.55;1873227;76;22597;-64
2021/12/09 09:21:45;;;;;;;37.08;17.32;;;;;;;7.92;85.28;100512.88;1872743;76;22157;-64
2021/12/09 09:24:17;;;;;;;32.35;16.05;;;;;;;7.91;85.28;100512.53;1872534;76;22747;-64
2021/12/09 09:26:49;;;;;;;35.52;17.40;;;;;;;7.84;85.23;100511.34;1873054;76;22230;-72
2021/12/09 09:29:20;;;;;;;28.07;15.40;;;;;;;7.83;85.55;100513.14;1870272;76;22182;-64
2021/12/09 09:31:52;;;;;;;30.00;15.65;;;;;;;7.87;85.79;100511.09;1873290;76;22196;-65
2021/12/09 09:34:24;;;;;;;29.25;15.58;;;;;;;7.93;85.78;100515.38;1892000;76;22195;-65
2021/12/09 09:37:15;;;;;;;31.82;14.53;;;;;;;7.92;85.47;100525.62;1872800;76;22225;-62
2021/12/09 09:39:47;;;;;;;29.32;15.95;;;;;;;7.89;85.52;100519.24;1873180;76;22629;-66
2021/12/09 09:45:14;;;;;;;30.97;16.60;;;;;;;7.89;85.70;100523.21;1872563;76;22184;-63
2021/12/09 09:47:46;;;;;;;31.10;18.05;;;;;;;7.88;85.75;100525.51;1872749;76;22133;-67
2021/12/09 09:50:17;;;;;;;31.07;16.48;;;;;;;7.91;85.83;100525.27;1892101;76;22188;-66
2021/12/09 09:52:49;;;;;;;31.85;16.60;;;;;;;7.96;85.96;100517.44;1891557;76;22183;-63
2021/12/09 09:55:22;;;;;;;30.85;16.42;;;;;;;8.01;85.81;100518.73;1872956;76;22200;-66
2021/12/09 09:57:53;;;;;;;29.85;16.65;;;;;;;8.06;85.59;100521.00;1872896;76;22153;-66
2021/12/09 10:00:45;;;;;;;31.93;16.25;;;;;;;8.06;85.56;100530.26;1872986;76;22216;-63
2021/12/09 10:03:17;;;;;;;29.57;16.80;;;;;;;8.06;85.72;100532.91;1879632;76;22204;-66
2021/12/09 10:05:50;;;;;;;41.65;24.23;;;;;;;8.09;85.67;100532.17;1892334;76;22601;-68
2021/12/09 10:08:41;;;;;;;36.68;24.10;;;;;;;8.15;85.72;100527.69;1870533;76;22246;-69
2021/12/09 10:11:13;;;;;;;35.03;24.25;;;;;;;8.22;85.43;100523.20;1873589;76;22160;-71
2021/12/09 10:13:45;;;;;;;42.85;27.70;;;;;;;8.26;85.18;100525.95;1873866;76;22161;-74
2021/12/09 10:16:25;;;;;;;58.28;35.80;;;;;;;8.26;84.86;100527.27;1873622;76;22260;-67
2021/12/09 10:18:57;;;;;;;64.15;40.15;;;;;;;8.27;84.75;100527.63;1892337;76;22169;-67
2021/12/09 10:21:30;;;;;;;63.10;40.20;;;;;;;8.29;84.68;100524.38;1871000;76;22157;-70
2021/12/09 10:24:06;;;;;;;60.35;37.58;;;;;;;8.31;84.56;100526.40;1870892;76;22196;-72
2021/12/09 10:26:41;;;;;;;45.25;27.93;;;;;;;8.31;84.47;100526.40;1873517;76;22170;-69
2021/12/09 10:29:30;;;;;;;42.27;25.88;;;;;;;8.35;84.46;100534.44;1873604;76;22704;-70
2021/12/09 10:32:03;;;;;;;37.58;23.73;;;;;;;8.36;84.27;100533.47;1874017;76;27892;-72
2021/12/09 10:34:40;;;;;;;36.48;23.07;;;;;;;8.43;84.04;100535.52;1876268;76;27921;-69
2021/12/09 10:37:22;;;;;;;35.80;21.55;;;;;;;8.61;83.66;100540.20;1873728;76;22204;-69
2021/12/09 10:40:13;;;;;;;34.08;20.65;;;;;;;8.65;83.20;100545.11;1873271;76;22574;-69
2021/12/09 10:42:59;;;;;;;36.90;20.45;;;;;;;8.62;83.37;100549.36;1873448;76;22670;-69
2021/12/09 10:45:35;;;;;;;38.78;21.23;;;;;;;8.56;83.41;100552.99;1892118;76;22187;-68
2021/12/09 10:48:25;;;;;;;37.20;20.25;;;;;;;8.47;83.46;100551.98;1892282;76;22201;-57
2021/12/09 10:51:24;;;;;;;36.95;18.37;;;;;;;8.41;84.12;100551.99;1873338;76;22165;-57
2021/12/09 10:53:47;;;;;;;36.13;19.80;;;;;;;8.49;85.63;100560.62;1892240;76;22649;-56
2021/12/09 10:56:34;;;;;;;41.53;21.35;;;;;;;8.63;85.50;100560.79;1885547;76;22184;-67
2021/12/09 10:59:14;;;;;;;40.85;22.00;;;;;;;8.61;84.78;100563.58;1886842;76;22219;-64
2021/12/09 11:01:46;;;;;;;38.98;22.15;;;;;;;8.59;84.24;100569.95;1873216;76;22133;-75
2021/12/09 11:04:23;;;;;;;40.92;22.77;;;;;;;8.54;84.16;100567.70;1892196;76;22207;-72
2021/12/09 11:06:55;;;;;;;37.25;19.35;;;;;;;8.51;84.18;100569.76;1892158;76;22195;-72
2021/12/09 11:09:27;;;;;;;38.30;20.85;;;;;;;8.45;83.99;100574.59;1873206;76;22161;-76
2021/12/09 11:11:59;;;;;;;40.90;21.37;;;;;;;8.36;84.19;100575.36;1892146;76;22160;-74
2021/12/09 11:14:32;;;;;;;39.13;21.60;;;;;;;8.33;84.55;100574.77;1891839;76;22208;-75
2021/12/09 11:17:07;;;;;;;39.55;21.82;;;;;;;8.30;84.67;100576.34;1873273;76;22223;-75
2021/12/09 11:20:04;;;;;;;40.12;21.10;;;;;;;8.26;84.99;100576.23;1872061;76;22177;-72
2021/12/09 11:22:53;;;;;;;40.83;22.35;;;;;;;8.22;85.38;100572.16;1872203;76;22168;-73
2021/12/09 11:25:45;;;;;;;44.55;23.65;;;;;;;8.20;85.72;100574.94;1872865;76;22208;-74
2021/12/09 11:28:17;;;;;;;48.25;25.52;;;;;;;8.15;85.96;100575.32;1872825;76;22188;-75
2021/12/09 11:33:45;;;;;;;40.70;22.67;;;;;;;8.10;86.58;100576.67;1873073;76;22643;-72
2021/12/09 11:36:57;;;;;;;40.95;23.45;;;;;;;8.15;86.76;100577.13;1873187;76;22161;-74
2021/12/09 11:39:32;;;;;;;40.15;22.10;;;;;;;8.15;86.82;100579.78;1873306;76;22196;-73
2021/12/09 11:42:22;;;;;;;41.40;23.52;;;;;;;8.13;87.02;100586.50;1873347;76;22221;-73
2021/12/09 11:44:53;;;;;;;41.53;25.30;;;;;;;8.15;87.07;100588.55;1892162;76;22156;-74
2021/12/09 11:47:46;;;;;;;44.38;26.48;;;;;;;8.12;87.05;100589.28;1892122;76;22625;-73
2021/12/09 11:50:24;;;;;;;40.45;23.50;;;;;;;8.09;87.25;100593.03;1892054;76;22152;-74
2021/12/09 11:52:58;;;;;;;48.10;26.27;;;;;;;8.07;87.33;100594.95;1891741;76;22164;-73
2021/12/09 11:55:37;;;;;;;50.15;29.25;;;;;;;8.08;87.56;100595.78;1873005;76;22157;-74
2021/12/09 11:58:31;;;;;;;43.60;25.85;;;;;;;8.13;87.68;100597.08;1873192;76;22157;-74
2021/12/09 12:07:42;;;;;;;42.33;22.25;;;;;;;8.15;87.82;100603.11;1870303;76;22217;-74
2021/12/09 12:13:07;;;;;;;42.13;24.32;;;;;;;8.18;87.98;100613.91;1872870;75;22629;-75
2021/12/09 12:15:59;;;;;;;45.88;26.93;;;;;;;8.18;88.04;100618.71;1870383;76;22192;-75
2021/12/09 12:24:58;;;;;;;43.05;24.18;;;;;;;8.20;88.21;100619.45;1873020;76;22213;-74
2021/12/09 12:27:56;;;;;;;50.40;27.02;;;;;;;8.23;88.21;100621.47;1873364;76;22152;-73
2021/12/09 12:33:23;;;;;;;42.50;23.98;;;;;;;8.26;88.16;100633.14;1872995;76;22597;-75
2021/12/09 12:35:58;;;;;;;37.63;22.90;;;;;;;8.25;88.12;100639.41;1868327;76;22581;-74
2021/12/09 12:41:11;;;;;;;38.60;19.20;;;;;;;8.24;88.17;100648.32;1873339;76;22214;-67